Seabreeze 1 — V3RT5 — position and weather

sailwx.info

Track history (hours):
 
Tides and Currents Weather Stations Pressure Air Temp Water Temp Dewpoint Dewpoint Depression Visibility Wind Speed Wind Dir Waves Ship Positions

Seabreeze 1

Last reported at 2014-Dec-09 19:07 UTC. Time now 2014-Dec-20 11:31 UTC.
Position N 44°47' E 035°11'.
Warning: this ship's position is 10 days out of date.

Length 139 m; draft 2.8 m.

Type: Cargo ship. MMSI: 312411000.

Date/timePositionNaut miles runAvg speedWind from/ knotsBaromVisibWave heightAir tempDewpointWater temp
2014-Dec-09 19:07N 44°47' E 035°11'4 5.7
2014-Dec-09 18:25N 44°46' E 035°06'5 5.6
2014-Dec-09 17:33N 44°45' E 034°60'6 6.1
2014-Dec-09 16:33N 44°43' E 034°51'6 6.0
2014-Dec-09 15:33N 44°41' E 034°44'6 5.9
2014-Dec-09 14:33N 44°37' E 034°37'6 5.9
2014-Dec-09 13:33N 44°33' E 034°31'5 5.4
2014-Dec-09 12:33N 44°29' E 034°26'5 5.1
2014-Dec-09 11:34N 44°26' E 034°20'5 4.9
2014-Dec-09 10:33N 44°22' E 034°15'4 4.4
2014-Dec-09 09:33N 44°19' E 034°11'4 4.1
2014-Dec-09 08:31N 44°16' E 034°07'  
2014-Dec-01 18:24N 44°20' E 034°05'7 7.8
2014-Dec-01 17:33N 44°23' E 034°13'8 7.8
2014-Dec-01 16:33N 44°27' E 034°23'7 7.4
2014-Dec-01 15:33N 44°30' E 034°32'7 7.4
2014-Dec-01 14:33N 44°34' E 034°41'7 7.4
2014-Dec-01 13:33N 44°37' E 034°50'7 7.2
2014-Dec-01 12:33N 44°40' E 034°60'  
Track history (hours):
 
Tides and Currents Weather Stations Pressure Air Temp Water Temp Dewpoint Dewpoint Depression Visibility Wind Speed Wind Dir Waves Ship Positions

Seabreeze 1

Last reported at 2014-Dec-09 19:07 UTC. Time now 2014-Dec-20 11:31 UTC.
Position N 44°47' E 035°11'.
Warning: this ship's position is 10 days out of date.

Length 139 m; draft 2.8 m.

Type: Cargo ship. MMSI: 312411000.

Date/timePositionNaut miles runAvg speedWind from/ knotsBaromVisibWave heightAir tempDewpointWater temp
2014-Dec-09 19:07N 44°47' E 035°11'4 5.7
2014-Dec-09 18:25N 44°46' E 035°06'5 5.6
2014-Dec-09 17:33N 44°45' E 034°60'6 6.1
2014-Dec-09 16:33N 44°43' E 034°51'6 6.0
2014-Dec-09 15:33N 44°41' E 034°44'6 5.9
2014-Dec-09 14:33N 44°37' E 034°37'6 5.9
2014-Dec-09 13:33N 44°33' E 034°31'5 5.4
2014-Dec-09 12:33N 44°29' E 034°26'5 5.1
2014-Dec-09 11:34N 44°26' E 034°20'5 4.9
2014-Dec-09 10:33N 44°22' E 034°15'4 4.4
2014-Dec-09 09:33N 44°19' E 034°11'4 4.1
2014-Dec-09 08:31N 44°16' E 034°07'  
2014-Dec-01 18:24N 44°20' E 034°05'7 7.8
2014-Dec-01 17:33N 44°23' E 034°13'8 7.8
2014-Dec-01 16:33N 44°27' E 034°23'7 7.4
2014-Dec-01 15:33N 44°30' E 034°32'7 7.4
2014-Dec-01 14:33N 44°34' E 034°41'7 7.4
2014-Dec-01 13:33N 44°37' E 034°50'7 7.2
2014-Dec-01 12:33N 44°40' E 034°60'  

Dump ship's entire track history